sensor_id;sensor_type;location;lat;lon;timestamp;P1;durP1;ratioP1;P2;durP2;ratioP2
12654;SDS011;6392;44.644;11.448;2023-02-28T00:00:11;7.17;;;4.47;;
12654;SDS011;6392;44.644;11.448;2023-02-28T00:02:40;8.17;;;3.83;;
12654;SDS011;6392;44.644;11.448;2023-02-28T00:05:08;8.20;;;3.83;;
12654;SDS011;6392;44.644;11.448;2023-02-28T00:07:39;8.20;;;4.23;;
12654;SDS011;6392;44.644;11.448;2023-02-28T00:10:09;9.27;;;3.63;;
12654;SDS011;6392;44.644;11.448;2023-02-28T00:12:38;4.53;;;3.50;;
12654;SDS011;6392;44.644;11.448;2023-02-28T00:15:05;8.70;;;4.90;;
12654;SDS011;6392;44.644;11.448;2023-02-28T00:17:34;6.07;;;4.10;;
12654;SDS011;6392;44.644;11.448;2023-02-28T00:20:02;6.60;;;3.83;;
12654;SDS011;6392;44.644;11.448;2023-02-28T00:22:33;11.97;;;4.30;;
12654;SDS011;6392;44.644;11.448;2023-02-28T00:25:01;7.87;;;3.67;;
12654;SDS011;6392;44.644;11.448;2023-02-28T00:27:28;7.03;;;4.40;;
12654;SDS011;6392;44.644;11.448;2023-02-28T00:29:55;10.83;;;3.73;;
12654;SDS011;6392;44.644;11.448;2023-02-28T00:32:22;6.23;;;4.20;;
12654;SDS011;6392;44.644;11.448;2023-02-28T00:34:50;5.47;;;4.10;;
12654;SDS011;6392;44.644;11.448;2023-02-28T00:37:17;11.03;;;3.77;;
12654;SDS011;6392;44.644;11.448;2023-02-28T00:39:44;6.03;;;4.37;;
12654;SDS011;6392;44.644;11.448;2023-02-28T00:42:11;10.30;;;4.00;;
12654;SDS011;6392;44.644;11.448;2023-02-28T00:44:38;6.83;;;4.50;;
12654;SDS011;6392;44.644;11.448;2023-02-28T00:47:05;6.87;;;3.70;;
12654;SDS011;6392;44.644;11.448;2023-02-28T00:49:32;6.70;;;4.43;;
12654;SDS011;6392;44.644;11.448;2023-02-28T00:52:01;9.30;;;4.57;;
12654;SDS011;6392;44.644;11.448;2023-02-28T00:54:28;8.17;;;4.10;;
12654;SDS011;6392;44.644;11.448;2023-02-28T00:56:55;9.53;;;4.30;;
12654;SDS011;6392;44.644;11.448;2023-02-28T00:59:22;7.67;;;4.50;;
12654;SDS011;6392;44.644;11.448;2023-02-28T01:01:49;6.13;;;3.90;;
12654;SDS011;6392;44.644;11.448;2023-02-28T01:04:16;6.83;;;4.20;;
12654;SDS011;6392;44.644;11.448;2023-02-28T01:06:43;7.03;;;3.77;;
12654;SDS011;6392;44.644;11.448;2023-02-28T01:09:12;5.43;;;4.20;;
12654;SDS011;6392;44.644;11.448;2023-02-28T01:11:39;5.27;;;3.87;;
12654;SDS011;6392;44.644;11.448;2023-02-28T01:14:09;7.50;;;3.90;;
12654;SDS011;6392;44.644;11.448;2023-02-28T01:16:39;5.13;;;3.80;;
12654;SDS011;6392;44.644;11.448;2023-02-28T01:19:06;6.20;;;4.23;;
12654;SDS011;6392;44.644;11.448;2023-02-28T01:21:33;6.63;;;4.17;;
12654;SDS011;6392;44.644;11.448;2023-02-28T01:24:01;6.83;;;3.83;;
12654;SDS011;6392;44.644;11.448;2023-02-28T01:26:30;4.90;;;3.43;;
12654;SDS011;6392;44.644;11.448;2023-02-28T01:28:57;5.73;;;4.00;;
12654;SDS011;6392;44.644;11.448;2023-02-28T01:31:24;6.47;;;4.27;;
12654;SDS011;6392;44.644;11.448;2023-02-28T01:33:51;9.20;;;4.47;;
12654;SDS011;6392;44.644;11.448;2023-02-28T01:36:19;9.50;;;4.70;;
12654;SDS011;6392;44.644;11.448;2023-02-28T01:38:48;8.60;;;4.63;;
12654;SDS011;6392;44.644;11.448;2023-02-28T01:41:17;7.30;;;4.70;;
12654;SDS011;6392;44.644;11.448;2023-02-28T01:43:53;8.40;;;4.43;;
12654;SDS011;6392;44.644;11.448;2023-02-28T01:46:22;9.50;;;4.67;;
12654;SDS011;6392;44.644;11.448;2023-02-28T01:48:51;7.90;;;4.07;;
12654;SDS011;6392;44.644;11.448;2023-02-28T01:51:21;5.90;;;4.17;;
12654;SDS011;6392;44.644;11.448;2023-02-28T01:53:54;6.87;;;4.53;;
12654;SDS011;6392;44.644;11.448;2023-02-28T01:56:26;8.43;;;4.40;;
12654;SDS011;6392;44.644;11.448;2023-02-28T01:58:57;5.37;;;4.13;;
12654;SDS011;6392;44.644;11.448;2023-02-28T02:01:25;7.27;;;4.43;;
12654;SDS011;6392;44.644;11.448;2023-02-28T02:03:55;6.60;;;4.30;;
12654;SDS011;6392;44.644;11.448;2023-02-28T02:06:26;6.77;;;4.27;;
12654;SDS011;6392;44.644;11.448;2023-02-28T02:08:56;7.57;;;4.10;;
12654;SDS011;6392;44.644;11.448;2023-02-28T02:11:23;7.83;;;5.00;;
12654;SDS011;6392;44.644;11.448;2023-02-28T02:14:03;6.80;;;4.27;;
12654;SDS011;6392;44.644;11.448;2023-02-28T02:16:55;5.47;;;3.63;;
12654;SDS011;6392;44.644;11.448;2023-02-28T02:19:46;6.37;;;4.13;;
12654;SDS011;6392;44.644;11.448;2023-02-28T02:25:32;4.37;;;3.97;;
12654;SDS011;6392;44.644;11.448;2023-02-28T02:31:02;5.17;;;4.00;;
12654;SDS011;6392;44.644;11.448;2023-02-28T02:33:48;7.00;;;4.07;;
12654;SDS011;6392;44.644;11.448;2023-02-28T02:36:47;7.23;;;4.10;;
12654;SDS011;6392;44.644;11.448;2023-02-28T02:39:18;8.73;;;4.13;;
12654;SDS011;6392;44.644;11.448;2023-02-28T02:41:54;6.03;;;3.87;;
12654;SDS011;6392;44.644;11.448;2023-02-28T02:44:26;5.40;;;4.00;;
12654;SDS011;6392;44.644;11.448;2023-02-28T02:46:58;9.33;;;4.33;;
12654;SDS011;6392;44.644;11.448;2023-02-28T02:49:32;6.43;;;3.80;;
12654;SDS011;6392;44.644;11.448;2023-02-28T02:52:03;7.50;;;4.70;;
12654;SDS011;6392;44.644;11.448;2023-02-28T02:54:33;7.57;;;4.33;;
12654;SDS011;6392;44.644;11.448;2023-02-28T02:57:04;7.83;;;4.97;;
12654;SDS011;6392;44.644;11.448;2023-02-28T02:59:45;8.57;;;4.67;;
12654;SDS011;6392;44.644;11.448;2023-02-28T03:02:14;8.77;;;3.97;;
12654;SDS011;6392;44.644;11.448;2023-02-28T03:04:45;11.83;;;5.07;;
12654;SDS011;6392;44.644;11.448;2023-02-28T03:07:19;7.23;;;4.17;;
12654;SDS011;6392;44.644;11.448;2023-02-28T03:09:50;9.03;;;4.33;;
12654;SDS011;6392;44.644;11.448;2023-02-28T03:12:18;5.30;;;4.17;;
12654;SDS011;6392;44.644;11.448;2023-02-28T03:14:50;5.63;;;4.00;;
12654;SDS011;6392;44.644;11.448;2023-02-28T03:20:29;8.37;;;4.37;;
12654;SDS011;6392;44.644;11.448;2023-02-28T03:23:07;8.07;;;4.50;;
12654;SDS011;6392;44.644;11.448;2023-02-28T03:25:44;8.40;;;4.77;;
12654;SDS011;6392;44.644;11.448;2023-02-28T03:28:24;7.00;;;4.20;;
12654;SDS011;6392;44.644;11.448;2023-02-28T03:30:59;6.70;;;4.07;;
12654;SDS011;6392;44.644;11.448;2023-02-28T03:33:35;6.10;;;4.23;;
12654;SDS011;6392;44.644;11.448;2023-02-28T03:36:07;7.80;;;4.23;;
12654;SDS011;6392;44.644;11.448;2023-02-28T03:38:41;7.67;;;4.57;;
12654;SDS011;6392;44.644;11.448;2023-02-28T03:41:11;5.63;;;4.53;;
12654;SDS011;6392;44.644;11.448;2023-02-28T03:43:43;6.60;;;4.73;;
12654;SDS011;6392;44.644;11.448;2023-02-28T03:46:15;6.13;;;4.50;;
12654;SDS011;6392;44.644;11.448;2023-02-28T03:48:48;9.13;;;4.60;;
12654;SDS011;6392;44.644;11.448;2023-02-28T03:51:21;9.10;;;4.30;;
12654;SDS011;6392;44.644;11.448;2023-02-28T03:53:52;9.73;;;4.60;;
12654;SDS011;6392;44.644;11.448;2023-02-28T03:56:23;7.57;;;4.30;;
12654;SDS011;6392;44.644;11.448;2023-02-28T03:58:55;7.10;;;4.43;;
12654;SDS011;6392;44.644;11.448;2023-02-28T04:01:27;6.67;;;4.67;;
12654;SDS011;6392;44.644;11.448;2023-02-28T04:04:00;7.67;;;4.90;;
12654;SDS011;6392;44.644;11.448;2023-02-28T04:06:27;8.77;;;4.30;;
12654;SDS011;6392;44.644;11.448;2023-02-28T04:08:59;7.53;;;4.30;;
12654;SDS011;6392;44.644;11.448;2023-02-28T04:11:27;5.33;;;4.47;;
12654;SDS011;6392;44.644;11.448;2023-02-28T04:13:58;7.87;;;4.50;;
12654;SDS011;6392;44.644;11.448;2023-02-28T04:16:25;7.00;;;4.63;;
12654;SDS011;6392;44.644;11.448;2023-02-28T04:18:52;6.67;;;4.47;;
12654;SDS011;6392;44.644;11.448;2023-02-28T04:21:27;6.80;;;4.13;;
12654;SDS011;6392;44.644;11.448;2023-02-28T04:23:54;7.80;;;4.53;;
12654;SDS011;6392;44.644;11.448;2023-02-28T04:26:26;7.30;;;5.17;;
12654;SDS011;6392;44.644;11.448;2023-02-28T04:28:55;8.20;;;4.83;;
12654;SDS011;6392;44.644;11.448;2023-02-28T04:31:22;5.97;;;4.17;;
12654;SDS011;6392;44.644;11.448;2023-02-28T04:33:49;6.63;;;4.90;;
12654;SDS011;6392;44.644;11.448;2023-02-28T04:36:17;9.03;;;5.13;;
12654;SDS011;6392;44.644;11.448;2023-02-28T04:38:45;6.53;;;4.63;;
12654;SDS011;6392;44.644;11.448;2023-02-28T04:41:12;8.67;;;5.13;;
12654;SDS011;6392;44.644;11.448;2023-02-28T04:43:41;7.30;;;4.60;;
12654;SDS011;6392;44.644;11.448;2023-02-28T04:46:08;8.20;;;5.10;;
12654;SDS011;6392;44.644;11.448;2023-02-28T04:48:36;7.53;;;5.17;;
12654;SDS011;6392;44.644;11.448;2023-02-28T04:51:05;7.17;;;4.83;;
12654;SDS011;6392;44.644;11.448;2023-02-28T04:53:33;10.40;;;5.23;;
12654;SDS011;6392;44.644;11.448;2023-02-28T04:56:00;10.27;;;5.07;;
12654;SDS011;6392;44.644;11.448;2023-02-28T04:58:27;8.77;;;5.47;;
12654;SDS011;6392;44.644;11.448;2023-02-28T05:00:57;10.70;;;5.30;;
12654;SDS011;6392;44.644;11.448;2023-02-28T05:03:28;11.37;;;5.63;;
12654;SDS011;6392;44.644;11.448;2023-02-28T05:05:55;6.43;;;4.83;;
12654;SDS011;6392;44.644;11.448;2023-02-28T05:08:22;10.83;;;5.30;;
12654;SDS011;6392;44.644;11.448;2023-02-28T05:10:50;7.80;;;5.23;;
12654;SDS011;6392;44.644;11.448;2023-02-28T05:13:17;8.83;;;5.13;;
12654;SDS011;6392;44.644;11.448;2023-02-28T05:15:44;10.00;;;5.40;;
12654;SDS011;6392;44.644;11.448;2023-02-28T05:18:12;9.87;;;5.67;;
12654;SDS011;6392;44.644;11.448;2023-02-28T05:20:39;10.20;;;5.00;;
12654;SDS011;6392;44.644;11.448;2023-02-28T05:23:07;10.93;;;5.97;;
12654;SDS011;6392;44.644;11.448;2023-02-28T05:25:37;8.40;;;5.23;;
12654;SDS011;6392;44.644;11.448;2023-02-28T05:28:05;9.00;;;4.77;;
12654;SDS011;6392;44.644;11.448;2023-02-28T05:30:32;8.67;;;5.20;;
12654;SDS011;6392;44.644;11.448;2023-02-28T05:32:59;9.73;;;5.00;;
12654;SDS011;6392;44.644;11.448;2023-02-28T05:35:28;9.30;;;5.70;;
12654;SDS011;6392;44.644;11.448;2023-02-28T05:37:55;9.23;;;4.90;;
12654;SDS011;6392;44.644;11.448;2023-02-28T05:40:22;7.33;;;5.10;;
12654;SDS011;6392;44.644;11.448;2023-02-28T05:42:49;11.23;;;5.20;;
12654;SDS011;6392;44.644;11.448;2023-02-28T05:45:17;9.40;;;4.93;;
12654;SDS011;6392;44.644;11.448;2023-02-28T05:47:44;10.40;;;5.00;;
12654;SDS011;6392;44.644;11.448;2023-02-28T05:50:11;8.60;;;5.23;;
12654;SDS011;6392;44.644;11.448;2023-02-28T05:52:39;6.30;;;4.43;;
12654;SDS011;6392;44.644;11.448;2023-02-28T05:55:07;11.47;;;5.00;;
12654;SDS011;6392;44.644;11.448;2023-02-28T05:57:34;10.43;;;5.37;;
12654;SDS011;6392;44.644;11.448;2023-02-28T06:00:02;9.27;;;5.23;;
12654;SDS011;6392;44.644;11.448;2023-02-28T06:02:29;9.43;;;4.90;;
12654;SDS011;6392;44.644;11.448;2023-02-28T06:04:56;7.97;;;4.80;;
12654;SDS011;6392;44.644;11.448;2023-02-28T06:07:23;10.43;;;5.87;;
12654;SDS011;6392;44.644;11.448;2023-02-28T06:09:52;7.37;;;5.13;;
12654;SDS011;6392;44.644;11.448;2023-02-28T06:12:19;7.37;;;4.77;;
12654;SDS011;6392;44.644;11.448;2023-02-28T06:14:46;7.23;;;5.07;;
12654;SDS011;6392;44.644;11.448;2023-02-28T06:17:13;8.20;;;5.13;;
12654;SDS011;6392;44.644;11.448;2023-02-28T06:19:40;9.67;;;5.20;;
12654;SDS011;6392;44.644;11.448;2023-02-28T06:22:07;9.87;;;4.57;;
12654;SDS011;6392;44.644;11.448;2023-02-28T06:24:34;7.47;;;4.67;;
12654;SDS011;6392;44.644;11.448;2023-02-28T06:27:02;9.93;;;5.30;;
12654;SDS011;6392;44.644;11.448;2023-02-28T06:29:30;8.70;;;5.17;;
12654;SDS011;6392;44.644;11.448;2023-02-28T06:31:57;9.53;;;5.43;;
12654;SDS011;6392;44.644;11.448;2023-02-28T06:34:24;9.23;;;4.70;;
12654;SDS011;6392;44.644;11.448;2023-02-28T06:36:52;8.13;;;4.70;;
12654;SDS011;6392;44.644;11.448;2023-02-28T06:39:19;8.83;;;4.77;;
12654;SDS011;6392;44.644;11.448;2023-02-28T06:41:48;8.63;;;5.13;;
12654;SDS011;6392;44.644;11.448;2023-02-28T06:44:18;9.47;;;4.90;;
12654;SDS011;6392;44.644;11.448;2023-02-28T06:46:45;7.43;;;5.13;;
12654;SDS011;6392;44.644;11.448;2023-02-28T06:49:12;9.83;;;5.13;;
12654;SDS011;6392;44.644;11.448;2023-02-28T06:51:40;7.83;;;5.00;;
12654;SDS011;6392;44.644;11.448;2023-02-28T06:54:10;6.87;;;4.70;;
12654;SDS011;6392;44.644;11.448;2023-02-28T06:56:37;7.63;;;4.90;;
12654;SDS011;6392;44.644;11.448;2023-02-28T06:59:05;8.10;;;4.77;;
12654;SDS011;6392;44.644;11.448;2023-02-28T07:01:33;7.70;;;5.50;;
12654;SDS011;6392;44.644;11.448;2023-02-28T07:04:00;7.47;;;4.80;;
12654;SDS011;6392;44.644;11.448;2023-02-28T07:06:28;8.20;;;4.90;;
12654;SDS011;6392;44.644;11.448;2023-02-28T07:08:55;8.40;;;4.90;;
12654;SDS011;6392;44.644;11.448;2023-02-28T07:11:22;9.27;;;5.83;;
12654;SDS011;6392;44.644;11.448;2023-02-28T07:13:51;9.40;;;4.87;;
12654;SDS011;6392;44.644;11.448;2023-02-28T07:16:18;8.40;;;4.93;;
12654;SDS011;6392;44.644;11.448;2023-02-28T07:18:47;8.60;;;5.30;;
12654;SDS011;6392;44.644;11.448;2023-02-28T07:21:14;11.13;;;5.50;;
12654;SDS011;6392;44.644;11.448;2023-02-28T07:23:41;8.37;;;5.47;;
12654;SDS011;6392;44.644;11.448;2023-02-28T07:26:11;11.17;;;5.80;;
12654;SDS011;6392;44.644;11.448;2023-02-28T07:28:39;8.13;;;4.97;;
12654;SDS011;6392;44.644;11.448;2023-02-28T07:31:07;13.30;;;5.63;;
12654;SDS011;6392;44.644;11.448;2023-02-28T07:33:35;10.23;;;5.03;;
12654;SDS011;6392;44.644;11.448;2023-02-28T07:36:05;10.20;;;5.57;;
12654;SDS011;6392;44.644;11.448;2023-02-28T07:38:35;7.03;;;5.17;;
12654;SDS011;6392;44.644;11.448;2023-02-28T07:41:02;10.30;;;5.30;;
12654;SDS011;6392;44.644;11.448;2023-02-28T07:43:30;8.43;;;4.97;;
12654;SDS011;6392;44.644;11.448;2023-02-28T07:46:00;8.13;;;5.20;;
12654;SDS011;6392;44.644;11.448;2023-02-28T07:48:29;10.07;;;5.80;;
12654;SDS011;6392;44.644;11.448;2023-02-28T07:50:56;11.43;;;5.10;;
12654;SDS011;6392;44.644;11.448;2023-02-28T07:53:25;8.90;;;4.97;;
12654;SDS011;6392;44.644;11.448;2023-02-28T07:55:54;8.53;;;5.13;;
12654;SDS011;6392;44.644;11.448;2023-02-28T07:58:21;8.00;;;4.97;;
12654;SDS011;6392;44.644;11.448;2023-02-28T08:00:49;9.13;;;4.90;;
12654;SDS011;6392;44.644;11.448;2023-02-28T08:03:16;8.43;;;5.10;;
12654;SDS011;6392;44.644;11.448;2023-02-28T08:05:44;9.23;;;5.30;;
12654;SDS011;6392;44.644;11.448;2023-02-28T08:08:11;8.53;;;5.67;;
12654;SDS011;6392;44.644;11.448;2023-02-28T08:10:40;8.13;;;4.67;;
12654;SDS011;6392;44.644;11.448;2023-02-28T08:13:07;10.70;;;5.23;;
12654;SDS011;6392;44.644;11.448;2023-02-28T08:15:34;11.77;;;5.93;;
12654;SDS011;6392;44.644;11.448;2023-02-28T08:18:01;8.17;;;5.03;;
12654;SDS011;6392;44.644;11.448;2023-02-28T08:20:28;8.00;;;5.20;;
12654;SDS011;6392;44.644;11.448;2023-02-28T08:22:55;9.90;;;5.00;;
12654;SDS011;6392;44.644;11.448;2023-02-28T08:25:22;7.77;;;5.33;;
12654;SDS011;6392;44.644;11.448;2023-02-28T08:27:51;6.37;;;4.20;;
12654;SDS011;6392;44.644;11.448;2023-02-28T08:30:19;7.50;;;4.97;;
12654;SDS011;6392;44.644;11.448;2023-02-28T08:32:46;11.53;;;5.63;;
12654;SDS011;6392;44.644;11.448;2023-02-28T08:35:13;10.50;;;5.23;;
12654;SDS011;6392;44.644;11.448;2023-02-28T08:37:40;11.37;;;5.87;;
12654;SDS011;6392;44.644;11.448;2023-02-28T08:40:07;6.13;;;4.57;;
12654;SDS011;6392;44.644;11.448;2023-02-28T08:42:36;9.37;;;4.93;;
12654;SDS011;6392;44.644;11.448;2023-02-28T08:45:05;11.10;;;4.70;;
12654;SDS011;6392;44.644;11.448;2023-02-28T08:47:32;11.20;;;5.43;;
12654;SDS011;6392;44.644;11.448;2023-02-28T08:49:59;10.17;;;5.20;;
12654;SDS011;6392;44.644;11.448;2023-02-28T08:52:26;7.77;;;4.83;;
12654;SDS011;6392;44.644;11.448;2023-02-28T08:54:53;6.93;;;4.97;;
12654;SDS011;6392;44.644;11.448;2023-02-28T08:57:20;9.43;;;5.30;;
12654;SDS011;6392;44.644;11.448;2023-02-28T08:59:47;8.03;;;4.90;;
12654;SDS011;6392;44.644;11.448;2023-02-28T09:02:16;7.17;;;4.90;;
12654;SDS011;6392;44.644;11.448;2023-02-28T09:04:43;8.23;;;5.40;;
12654;SDS011;6392;44.644;11.448;2023-02-28T09:07:10;9.20;;;5.07;;
12654;SDS011;6392;44.644;11.448;2023-02-28T09:09:38;8.57;;;5.47;;
12654;SDS011;6392;44.644;11.448;2023-02-28T09:12:18;7.23;;;5.00;;
12654;SDS011;6392;44.644;11.448;2023-02-28T09:14:45;7.27;;;5.07;;
12654;SDS011;6392;44.644;11.448;2023-02-28T09:17:12;8.53;;;5.30;;
12654;SDS011;6392;44.644;11.448;2023-02-28T09:19:41;9.27;;;4.80;;
12654;SDS011;6392;44.644;11.448;2023-02-28T09:22:08;9.30;;;5.23;;
12654;SDS011;6392;44.644;11.448;2023-02-28T09:24:38;7.77;;;5.20;;
12654;SDS011;6392;44.644;11.448;2023-02-28T09:27:05;10.33;;;5.30;;
12654;SDS011;6392;44.644;11.448;2023-02-28T09:29:32;9.30;;;4.97;;
12654;SDS011;6392;44.644;11.448;2023-02-28T09:32:00;6.03;;;4.80;;
12654;SDS011;6392;44.644;11.448;2023-02-28T09:34:30;11.30;;;5.03;;
12654;SDS011;6392;44.644;11.448;2023-02-28T09:36:59;10.53;;;4.90;;
12654;SDS011;6392;44.644;11.448;2023-02-28T09:39:26;8.87;;;5.40;;
12654;SDS011;6392;44.644;11.448;2023-02-28T09:41:54;9.03;;;4.77;;
12654;SDS011;6392;44.644;11.448;2023-02-28T09:44:26;10.10;;;5.30;;
12654;SDS011;6392;44.644;11.448;2023-02-28T09:46:57;8.33;;;5.10;;
12654;SDS011;6392;44.644;11.448;2023-02-28T09:49:30;8.57;;;5.63;;
12654;SDS011;6392;44.644;11.448;2023-02-28T09:52:06;9.57;;;5.10;;
12654;SDS011;6392;44.644;11.448;2023-02-28T09:54:37;8.37;;;4.87;;
12654;SDS011;6392;44.644;11.448;2023-02-28T09:57:06;7.30;;;5.07;;
12654;SDS011;6392;44.644;11.448;2023-02-28T09:59:39;7.33;;;5.50;;
12654;SDS011;6392;44.644;11.448;2023-02-28T10:02:19;6.77;;;4.97;;
12654;SDS011;6392;44.644;11.448;2023-02-28T10:05:02;5.27;;;4.50;;
12654;SDS011;6392;44.644;11.448;2023-02-28T10:07:40;11.00;;;4.93;;
12654;SDS011;6392;44.644;11.448;2023-02-28T10:10:21;8.93;;;5.50;;
12654;SDS011;6392;44.644;11.448;2023-02-28T10:12:51;8.17;;;5.33;;
12654;SDS011;6392;44.644;11.448;2023-02-28T10:15:21;9.07;;;5.63;;
12654;SDS011;6392;44.644;11.448;2023-02-28T10:17:51;8.27;;;5.23;;
12654;SDS011;6392;44.644;11.448;2023-02-28T10:20:23;9.03;;;5.53;;
12654;SDS011;6392;44.644;11.448;2023-02-28T10:22:58;8.13;;;5.10;;
12654;SDS011;6392;44.644;11.448;2023-02-28T10:25:32;6.43;;;4.90;;
12654;SDS011;6392;44.644;11.448;2023-02-28T10:28:01;6.80;;;5.13;;
12654;SDS011;6392;44.644;11.448;2023-02-28T10:30:36;10.17;;;5.70;;
12654;SDS011;6392;44.644;11.448;2023-02-28T10:33:08;8.90;;;5.00;;
12654;SDS011;6392;44.644;11.448;2023-02-28T10:35:44;8.93;;;5.20;;
12654;SDS011;6392;44.644;11.448;2023-02-28T10:38:14;6.90;;;4.93;;
12654;SDS011;6392;44.644;11.448;2023-02-28T10:40:43;9.50;;;5.47;;
12654;SDS011;6392;44.644;11.448;2023-02-28T10:43:18;7.47;;;4.73;;
12654;SDS011;6392;44.644;11.448;2023-02-28T10:45:52;8.70;;;5.57;;
12654;SDS011;6392;44.644;11.448;2023-02-28T10:48:36;9.13;;;5.10;;
12654;SDS011;6392;44.644;11.448;2023-02-28T10:51:05;7.20;;;5.40;;
12654;SDS011;6392;44.644;11.448;2023-02-28T10:53:46;10.47;;;5.17;;
12654;SDS011;6392;44.644;11.448;2023-02-28T10:56:16;10.37;;;4.63;;
12654;SDS011;6392;44.644;11.448;2023-02-28T10:58:48;7.50;;;5.10;;
12654;SDS011;6392;44.644;11.448;2023-02-28T11:01:18;9.60;;;5.13;;
12654;SDS011;6392;44.644;11.448;2023-02-28T11:03:46;8.17;;;5.20;;
12654;SDS011;6392;44.644;11.448;2023-02-28T11:06:15;7.00;;;5.10;;
12654;SDS011;6392;44.644;11.448;2023-02-28T11:08:47;8.43;;;5.43;;
12654;SDS011;6392;44.644;11.448;2023-02-28T11:11:17;7.83;;;5.30;;
12654;SDS011;6392;44.644;11.448;2023-02-28T11:13:45;7.70;;;5.50;;
12654;SDS011;6392;44.644;11.448;2023-02-28T11:16:15;7.80;;;5.47;;
12654;SDS011;6392;44.644;11.448;2023-02-28T11:18:43;9.93;;;5.30;;
12654;SDS011;6392;44.644;11.448;2023-02-28T11:21:18;7.40;;;5.37;;
12654;SDS011;6392;44.644;11.448;2023-02-28T11:23:50;6.73;;;5.30;;
12654;SDS011;6392;44.644;11.448;2023-02-28T11:26:37;7.90;;;5.57;;
12654;SDS011;6392;44.644;11.448;2023-02-28T11:29:11;9.47;;;5.07;;
12654;SDS011;6392;44.644;11.448;2023-02-28T11:31:45;8.07;;;5.53;;
12654;SDS011;6392;44.644;11.448;2023-02-28T11:34:29;8.00;;;5.57;;
12654;SDS011;6392;44.644;11.448;2023-02-28T11:36:57;8.80;;;5.60;;
12654;SDS011;6392;44.644;11.448;2023-02-28T11:39:27;8.40;;;5.87;;
12654;SDS011;6392;44.644;11.448;2023-02-28T11:42:07;7.97;;;5.37;;
12654;SDS011;6392;44.644;11.448;2023-02-28T11:45:08;10.67;;;5.67;;
12654;SDS011;6392;44.644;11.448;2023-02-28T11:47:45;8.20;;;5.33;;
12654;SDS011;6392;44.644;11.448;2023-02-28T11:50:21;8.17;;;5.43;;
12654;SDS011;6392;44.644;11.448;2023-02-28T11:53:00;8.37;;;5.20;;
12654;SDS011;6392;44.644;11.448;2023-02-28T11:55:34;9.43;;;5.67;;
12654;SDS011;6392;44.644;11.448;2023-02-28T11:58:05;8.23;;;5.17;;
12654;SDS011;6392;44.644;11.448;2023-02-28T12:00:47;8.70;;;5.47;;
12654;SDS011;6392;44.644;11.448;2023-02-28T12:03:26;9.23;;;5.07;;
12654;SDS011;6392;44.644;11.448;2023-02-28T12:06:03;9.53;;;5.37;;
12654;SDS011;6392;44.644;11.448;2023-02-28T12:08:43;7.90;;;5.17;;
12654;SDS011;6392;44.644;11.448;2023-02-28T12:11:19;11.97;;;6.37;;
12654;SDS011;6392;44.644;11.448;2023-02-28T12:13:58;8.13;;;4.90;;
12654;SDS011;6392;44.644;11.448;2023-02-28T12:17:01;12.23;;;6.00;;
12654;SDS011;6392;44.644;11.448;2023-02-28T12:19:41;8.57;;;5.07;;
12654;SDS011;6392;44.644;11.448;2023-02-28T12:22:20;8.13;;;5.00;;
12654;SDS011;6392;44.644;11.448;2023-02-28T12:27:56;7.30;;;5.37;;
12654;SDS011;6392;44.644;11.448;2023-02-28T12:30:24;6.90;;;4.50;;
12654;SDS011;6392;44.644;11.448;2023-02-28T12:32:54;11.50;;;5.60;;
12654;SDS011;6392;44.644;11.448;2023-02-28T12:35:25;8.57;;;5.70;;
12654;SDS011;6392;44.644;11.448;2023-02-28T12:37:59;7.07;;;4.63;;
12654;SDS011;6392;44.644;11.448;2023-02-28T12:40:32;8.03;;;4.93;;
12654;SDS011;6392;44.644;11.448;2023-02-28T12:43:09;11.50;;;5.20;;
12654;SDS011;6392;44.644;11.448;2023-02-28T12:45:40;9.30;;;5.57;;
12654;SDS011;6392;44.644;11.448;2023-02-28T12:48:14;7.27;;;4.87;;
12654;SDS011;6392;44.644;11.448;2023-02-28T12:50:44;7.27;;;4.87;;
12654;SDS011;6392;44.644;11.448;2023-02-28T12:53:14;9.37;;;4.87;;
12654;SDS011;6392;44.644;11.448;2023-02-28T12:55:54;12.73;;;5.20;;
12654;SDS011;6392;44.644;11.448;2023-02-28T12:58:31;5.30;;;4.60;;
12654;SDS011;6392;44.644;11.448;2023-02-28T13:04:08;6.50;;;4.70;;
12654;SDS011;6392;44.644;11.448;2023-02-28T13:09:59;8.23;;;5.53;;
12654;SDS011;6392;44.644;11.448;2023-02-28T13:12:29;11.87;;;5.43;;
12654;SDS011;6392;44.644;11.448;2023-02-28T13:15:04;7.03;;;4.63;;
12654;SDS011;6392;44.644;11.448;2023-02-28T13:17:38;7.57;;;5.10;;
12654;SDS011;6392;44.644;11.448;2023-02-28T13:20:14;6.77;;;4.70;;
12654;SDS011;6392;44.644;11.448;2023-02-28T13:22:44;9.33;;;4.47;;
12654;SDS011;6392;44.644;11.448;2023-02-28T13:31:33;5.63;;;4.23;;
12654;SDS011;6392;44.644;11.448;2023-02-28T13:34:39;8.33;;;4.63;;
12654;SDS011;6392;44.644;11.448;2023-02-28T13:43:02;6.87;;;4.17;;
12654;SDS011;6392;44.644;11.448;2023-02-28T13:45:33;6.87;;;3.53;;
12654;SDS011;6392;44.644;11.448;2023-02-28T13:48:05;5.17;;;3.53;;
12654;SDS011;6392;44.644;11.448;2023-02-28T13:50:43;6.30;;;3.73;;
12654;SDS011;6392;44.644;11.448;2023-02-28T13:53:34;4.77;;;3.40;;
12654;SDS011;6392;44.644;11.448;2023-02-28T13:56:20;5.67;;;4.07;;
12654;SDS011;6392;44.644;11.448;2023-02-28T13:58:56;5.00;;;3.93;;
12654;SDS011;6392;44.644;11.448;2023-02-28T14:07:32;9.47;;;4.37;;
12654;SDS011;6392;44.644;11.448;2023-02-28T14:10:05;7.70;;;4.27;;
12654;SDS011;6392;44.644;11.448;2023-02-28T14:18:23;7.10;;;4.23;;
12654;SDS011;6392;44.644;11.448;2023-02-28T14:21:14;5.33;;;4.00;;
12654;SDS011;6392;44.644;11.448;2023-02-28T14:23:56;8.90;;;4.30;;
12654;SDS011;6392;44.644;11.448;2023-02-28T14:26:48;7.47;;;3.83;;
12654;SDS011;6392;44.644;11.448;2023-02-28T14:29:43;8.37;;;4.10;;
12654;SDS011;6392;44.644;11.448;2023-02-28T14:32:32;7.80;;;3.83;;
12654;SDS011;6392;44.644;11.448;2023-02-28T14:35:09;5.97;;;3.80;;
12654;SDS011;6392;44.644;11.448;2023-02-28T14:37:46;7.30;;;3.70;;
12654;SDS011;6392;44.644;11.448;2023-02-28T14:40:15;7.40;;;4.07;;
12654;SDS011;6392;44.644;11.448;2023-02-28T14:42:46;11.63;;;5.63;;
12654;SDS011;6392;44.644;11.448;2023-02-28T14:45:19;11.30;;;6.10;;
12654;SDS011;6392;44.644;11.448;2023-02-28T14:47:58;10.10;;;5.90;;
12654;SDS011;6392;44.644;11.448;2023-02-28T14:50:29;11.23;;;7.23;;
12654;SDS011;6392;44.644;11.448;2023-02-28T14:53:00;12.27;;;7.17;;
12654;SDS011;6392;44.644;11.448;2023-02-28T14:55:29;9.33;;;6.03;;
12654;SDS011;6392;44.644;11.448;2023-02-28T14:58:00;9.93;;;6.73;;
12654;SDS011;6392;44.644;11.448;2023-02-28T15:00:31;9.90;;;7.20;;
12654;SDS011;6392;44.644;11.448;2023-02-28T15:03:13;11.03;;;7.80;;
12654;SDS011;6392;44.644;11.448;2023-02-28T15:05:51;12.57;;;8.63;;
12654;SDS011;6392;44.644;11.448;2023-02-28T15:08:20;15.50;;;7.87;;
12654;SDS011;6392;44.644;11.448;2023-02-28T15:10:51;14.73;;;7.90;;
12654;SDS011;6392;44.644;11.448;2023-02-28T15:13:21;12.73;;;7.80;;
12654;SDS011;6392;44.644;11.448;2023-02-28T15:15:51;13.17;;;7.83;;
12654;SDS011;6392;44.644;11.448;2023-02-28T15:18:25;12.13;;;7.93;;
12654;SDS011;6392;44.644;11.448;2023-02-28T15:20:57;12.80;;;8.67;;
12654;SDS011;6392;44.644;11.448;2023-02-28T15:23:30;14.30;;;8.23;;
12654;SDS011;6392;44.644;11.448;2023-02-28T15:26:00;13.10;;;8.53;;
12654;SDS011;6392;44.644;11.448;2023-02-28T15:28:28;13.83;;;9.07;;
12654;SDS011;6392;44.644;11.448;2023-02-28T15:30:57;11.23;;;8.23;;
12654;SDS011;6392;44.644;11.448;2023-02-28T15:33:26;12.40;;;8.87;;
12654;SDS011;6392;44.644;11.448;2023-02-28T15:36:04;11.93;;;8.30;;
12654;SDS011;6392;44.644;11.448;2023-02-28T15:38:35;14.70;;;9.00;;
12654;SDS011;6392;44.644;11.448;2023-02-28T15:41:02;14.70;;;8.37;;
12654;SDS011;6392;44.644;11.448;2023-02-28T15:43:33;14.67;;;9.00;;
12654;SDS011;6392;44.644;11.448;2023-02-28T15:46:02;12.23;;;8.93;;
12654;SDS011;6392;44.644;11.448;2023-02-28T15:48:33;14.50;;;8.40;;
12654;SDS011;6392;44.644;11.448;2023-02-28T15:51:05;13.63;;;9.20;;